M I D A S
Marine Information and Data Acquisition System
Tripno 1045 of the Zeeleeuw from 2006-03-07 09:15:18 to 2006-03-07 15:21:46
Back to CruiseResearch ActivitiesStationsMapUnderway DataData graphs

EquipmentUnitsComment
TimeDGPSUTC
LatitudeDGPSDM.mWGS84
LongitudeDGPSDM.mWGS84
TemperatureSBE03/SBE38deg celciusITS90
ConductivitySBE21S/mITS90
SalinitySBE21 Practical Salinity Units
ChlorophylAChelsea fluorimeterg/lCalibrated in Aceton
Missing or incorrect values are displayed as -999
Sea surface data collected by the RV Zeeleeuw from 2006-03-07 08:17:53 to 2006-03-07 15:35:08
Time Latitude Longitude Temperature Conductivity Salinity ChlorophylA
2006-03-07 08:18:58 51°13.595 2°56.094 -999 2.57808 27.221622 1.443571
2006-03-07 08:19:58 51°13.596 2°56.095 -999 2.57839 27.220297 1.477281
2006-03-07 08:20:58 51°13.596 2°56.095 -999 2.579217 27.227427 1.51099
2006-03-07 08:21:58 51°13.597 2°56.095 -999 2.579734 27.230139 1.51099
2006-03-07 08:22:58 51°13.599 2°56.095 -999 2.581284 27.244836 1.5447
2006-03-07 08:23:58 51°13.598 2°56.095 -999 2.591514 27.370117 1.578409
2006-03-07 08:24:58 51°13.599 2°56.095 -999 2.595338 27.416154 1.578409
2006-03-07 08:25:58 51°13.6 2°56.096 -999 2.601228 27.483725 1.578409
2006-03-07 08:26:58 51°13.599 2°56.095 -999 2.605982 27.543086 1.612118
2006-03-07 08:27:58 51°13.602 2°56.096 -999 2.608359 27.570702 1.645828
2006-03-07 08:28:58 51°13.6 2°56.094 -999 2.61053 27.600078 1.645828
2006-03-07 08:29:58 51°13.601 2°56.095 -999 2.6127 27.626135 1.679537
2006-03-07 08:30:58 51°13.6 2°56.095 -999 2.615697 27.660974 1.679537
2006-03-07 08:31:58 51°13.599 2°56.094 -999 2.616627 27.671788 1.713247
2006-03-07 08:32:58 51°13.6 2°56.094 -999 2.616834 27.672523 1.713247
2006-03-07 08:33:58 51°13.6 2°56.094 -999 2.617247 27.677328 1.746956
2006-03-07 08:34:58 51°13.599 2°56.095 -999 2.616627 27.662617 1.780665
2006-03-07 08:35:57 51°13.598 2°56.095 -999 2.618901 27.694049 1.780665
2006-03-07 08:36:58 51°13.599 2°56.095 -999 2.61828 27.68684 1.814375
2006-03-07 08:37:58 51°13.599 2°56.096 -999 2.619004 27.696085 1.814375
2006-03-07 08:38:58 51°13.6 2°56.095 -999 2.621071 27.720117 1.814375
2006-03-07 08:39:58 51°13.6 2°56.095 -999 2.623344 27.746555 1.848084
2006-03-07 08:40:58 51°13.6 2°56.094 -999 2.622621 27.732293 1.881794
2006-03-07 08:41:58 51°13.6 2°56.093 -999 2.628615 27.807017 1.881794
2006-03-07 08:42:58 51°13.599 2°56.094 -999 2.631612 27.845237 1.881794
2006-03-07 08:43:58 51°13.598 2°56.094 -999 2.635333 27.894413 1.915503
2006-03-07 08:44:58 51°13.598 2°56.094 -999 2.638537 27.933391 1.915503
2006-03-07 08:45:58 51°13.598 2°56.094 -999 2.640191 27.955172 1.915503
2006-03-07 08:46:58 51°13.599 2°56.094 -999 2.642361 27.977071 1.915503
2006-03-07 08:47:58 51°13.599 2°56.094 -999 2.642774 27.980198 1.915503
2006-03-07 08:48:58 51°13.599 2°56.095 -999 2.643084 27.982964 1.949212
2006-03-07 08:49:58 51°13.597 2°56.095 -999 2.644325 27.995717 1.949212
2006-03-07 08:50:58 51°13.597 2°56.094 -999 2.645668 28.011361 1.949212
2006-03-07 08:51:58 51°13.597 2°56.094 -999 2.645565 28.011846 1.982922
2006-03-07 08:52:58 51°13.598 2°56.094 -999 2.649492 28.060122 1.982922
2006-03-07 08:53:58 51°13.598 2°56.094 -999 2.651973 28.091557 2.016631
2006-03-07 08:54:58 51°13.597 2°56.094 -999 2.653833 28.109843 2.016631
2006-03-07 08:55:58 51°13.596 2°56.094 -999 2.65466 28.122019 2.016631
2006-03-07 08:56:58 51°13.597 2°56.095 -999 2.655487 28.129957 2.050341
2006-03-07 08:57:58 51°13.597 2°56.095 -999 2.6559 28.135622 2.050341
2006-03-07 08:58:58 51°13.598 2°56.095 -999 2.65652 28.142 2.050341
2006-03-07 08:59:58 51°13.598 2°56.095 -999 2.657451 28.156234 2.050341
2006-03-07 09:00:58 51°13.597 2°56.095 -999 2.659311 28.177067 2.08405
2006-03-07 09:01:58 51°13.597 2°56.093 -999 2.659311 28.168574 2.08405
2006-03-07 09:02:58 51°13.597 2°56.094 -999 2.659104 28.17211 2.050341
2006-03-07 09:03:58 51°13.597 2°56.094 -999 2.658587 28.160994 2.08405
2006-03-07 09:04:58 51°13.597 2°56.094 -999 2.658484 28.160638 2.08405
2006-03-07 09:05:58 51°13.596 2°56.094 -999 2.659104 28.165317 2.08405
2006-03-07 09:06:58 51°13.597 2°56.087 -999 2.645668 28.003765 2.151469
2006-03-07 09:07:59 51°13.611 2°56.02 -999 2.588414 27.334136 3.027913
2006-03-07 09:08:59 51°13.632 2°55.94 -999 2.564233 27.056132 2.893076
2006-03-07 09:09:59 51°13.657 2°55.855 -999 2.595958 27.424179 2.65711
2006-03-07 09:10:59 51°13.684 2°55.765 -999 2.608876 27.579199 2.589691
2006-03-07 09:11:58 51°13.7 2°55.72 -999 2.611356 27.605527 2.690819
2006-03-07 09:12:58 51°13.729 2°55.754 -999 2.54925 26.871992 2.724529
2006-03-07 09:13:59 51°13.718 2°55.749 -999 2.396652 25.081199 2.859366
2006-03-07 09:14:58 51°13.788 2°55.68 -999 2.446755 25.662929 2.690819
2006-03-07 09:15:58 51°13.937 2°55.561 -999 2.493144 26.209117 3.398717
2006-03-07 09:16:58 51°14.085 2°55.456 -999 2.57064 27.122239 2.758238
2006-03-07 09:17:58 51°14.23 2°55.309 -999 2.525381 26.599003 2.65711
2006-03-07 09:18:58 51°14.363 2°55.077 -999 2.55576 26.950625 2.724529
2006-03-07 09:19:58 51°14.511 2°54.891 -999 2.650422 28.048128 2.724529
2006-03-07 09:20:58 51°14.599 2°54.854 -999 2.799793 29.892305 2.488563
2006-03-07 09:21:58 51°14.669 2°54.864 -999 2.820885 30.173445 2.454853
2006-03-07 09:22:58 51°14.821 2°54.8 -999 2.82316 30.211242 2.387435
2006-03-07 09:23:58 51°14.985 2°54.614 -999 2.816956 30.14446 2.387435
2006-03-07 09:24:58 51°15.159 2°54.43 -999 2.810133 30.078558 2.353725
2006-03-07 09:25:58 51°15.338 2°54.241 -999 2.827812 30.289986 2.421144
2006-03-07 09:26:58 51°15.513 2°54.047 -999 2.844563 30.519325 2.353725
2006-03-07 09:27:58 51°15.69 2°53.849 -999 2.840634 30.495051 2.286306
2006-03-07 09:28:58 51°15.87 2°53.652 -999 2.843529 30.527471 2.185178
2006-03-07 09:29:58 51°16.055 2°53.458 -999 2.845493 30.551657 2.218888
2006-03-07 09:30:58 51°16.241 2°53.275 -999 2.85118 30.583711 2.353725
2006-03-07 09:31:58 51°16.424 2°53.086 -999 2.856867 30.631487 2.252597
2006-03-07 09:32:58 51°16.608 2°52.899 -999 2.861416 30.664848 2.252597
2006-03-07 09:33:58 51°16.794 2°52.715 -999 2.866069 30.720786 2.218888
2006-03-07 09:34:58 51°16.99 2°52.568 -999 2.868861 30.753798 2.050341
2006-03-07 09:35:58 51°17.203 2°52.502 -999 2.878684 30.874663 2.016631
2006-03-07 09:36:58 51°17.419 2°52.445 -999 2.893885 31.05836 2.016631
2006-03-07 09:37:58 51°17.634 2°52.412 -999 2.90164 31.140793 2.016631
2006-03-07 09:38:58 51°17.847 2°52.445 -999 2.899986 31.138174 2.151469
2006-03-07 09:39:58 51°18.05 2°52.544 -999 2.89678 31.098307 2.117759
2006-03-07 09:40:58 51°18.2 2°52.765 -999 2.892748 31.056181 2.218888
2006-03-07 09:41:58 51°18.271 2°53.076 -999 2.888611 31.020348 2.218888
2006-03-07 09:42:58 51°18.356 2°53.383 -999 2.889645 31.019433 2.185178
2006-03-07 09:43:58 51°18.446 2°53.687 -999 2.889749 31.015957 2.151469
2006-03-07 09:44:58 51°18.528 2°53.998 -999 2.889335 31.003542 2.117759
2006-03-07 09:45:58 51°18.609 2°54.307 -999 2.885095 30.953349 2.117759
2006-03-07 09:46:58 51°18.688 2°54.618 -999 2.883234 30.934129 2.151469
2006-03-07 09:47:58 51°18.765 2°54.93 -999 2.882407 30.926211 2.151469
2006-03-07 09:48:58 51°18.842 2°55.244 -999 2.882407 30.916842 2.151469
2006-03-07 09:49:58 51°18.92 2°55.554 -999 2.883027 30.926995 2.151469
2006-03-07 09:50:58 51°19.004 2°55.863 -999 2.884268 30.936059 2.218888
2006-03-07 09:51:58 51°19.089 2°56.172 -999 2.878891 30.885531 2.286306
2006-03-07 09:52:58 51°19.175 2°56.479 -999 2.878374 30.861644 2.252597
2006-03-07 09:53:58 51°19.256 2°56.784 -999 2.878581 30.895904 2.252597
2006-03-07 09:54:58 51°19.339 2°57.088 -999 2.882924 30.944521 2.286306
2006-03-07 09:55:58 51°19.422 2°57.395 -999 2.883544 30.950931 2.286306
2006-03-07 09:56:58 51°19.505 2°57.707 -999 2.881269 30.90151 2.218888
2006-03-07 09:57:58 51°19.588 2°58.017 -999 2.876306 30.833447 2.286306
2006-03-07 09:58:58 51°19.678 2°58.321 -999 2.873514 30.820964 2.353725
2006-03-07 09:59:58 51°19.754 2°58.632 -999 2.86762 30.74285 2.185178
2006-03-07 10:00:58 51°19.825 2°58.942 -999 2.870826 30.771439 2.353725
2006-03-07 10:01:58 51°19.895 2°59.25 -999 2.864104 30.628914 2.421144
2006-03-07 10:02:58 51°19.962 2°59.559 -999 2.863173 30.575442 2.353725
2006-03-07 10:03:58 51°20.032 2°59.86 -999 2.865551 30.576704 2.320016
2006-03-07 10:04:58 51°20.116 3°0.155 -999 2.868549 30.576978 2.286306
2006-03-07 10:05:58 51°20.198 3°0.449 -999 2.870927 30.590208 2.320016
2006-03-07 10:06:58 51°20.28 3°0.743 -999 2.867412 30.560844 2.421144
2006-03-07 10:07:58 51°20.362 3°1.037 -999 2.864516 30.517623 2.320016
2006-03-07 10:08:58 51°20.446 3°1.329 -999 2.86524 30.50685 2.320016
2006-03-07 10:09:58 51°20.531 3°1.62 -999 2.86038 30.475445 2.320016
2006-03-07 10:10:58 51°20.617 3°1.907 -999 2.85945 30.453511 2.218888
2006-03-07 10:11:58 51°20.705 3°2.196 -999 2.859243 30.45383 2.218888
2006-03-07 10:12:58 51°20.794 3°2.484 -999 2.859139 30.452616 2.185178
2006-03-07 10:13:58 51°20.881 3°2.775 -999 2.85945 30.457176 2.185178
2006-03-07 10:14:58 51°20.968 3°3.066 -999 2.85976 30.457154 2.185178
2006-03-07 10:15:58 51°21.055 3°3.358 -999 2.859967 30.454086 2.218888
2006-03-07 10:16:58 51°21.141 3°3.651 -999 2.861311 30.458878 2.218888
2006-03-07 10:17:58 51°21.22 3°3.948 -999 2.862758 30.466714 2.218888
2006-03-07 10:18:58 51°21.299 3°4.245 -999 2.86524 30.488513 2.218888
2006-03-07 10:19:58 51°21.378 3°4.541 -999 2.864206 30.480042 2.218888
2006-03-07 10:20:58 51°21.459 3°4.836 -999 2.864826 30.489157 2.218888
2006-03-07 10:21:58 51°21.533 3°5.133 -999 2.867308 30.513704 2.218888
2006-03-07 10:22:58 51°21.604 3°5.43 -999 2.872478 30.56246 2.185178
2006-03-07 10:23:58 51°21.675 3°5.724 -999 2.878992 30.626969 2.185178
2006-03-07 10:24:58 51°21.748 3°6.015 -999 2.883128 30.663546 2.185178
2006-03-07 10:25:58 51°21.823 3°6.306 -999 2.882301 30.657521 2.185178
2006-03-07 10:26:58 51°21.889 3°6.601 -999 2.881267 30.651828 2.218888
2006-03-07 10:27:58 51°21.948 3°6.9 -999 2.882508 30.66363 2.185178
2006-03-07 10:28:58 51°21.996 3°7.2 -999 2.869686 30.520525 2.117759
2006-03-07 10:29:58 51°22.037 3°7.504 -999 2.86524 30.483017 2.6234
2006-03-07 10:30:58 51°22.07 3°7.81 -999 2.868859 30.518153 2.893076
2006-03-07 10:31:58 51°22.102 3°8.117 -999 2.869893 30.544968 2.791947
2006-03-07 10:32:58 51°22.135 3°8.422 -999 2.87072 30.573058 2.555982
2006-03-07 10:33:58 51°22.163 3°8.73 -999 2.873305 30.592388 2.218888
2006-03-07 10:34:58 51°22.175 3°9.038 -999 2.875994 30.622126 2.117759
2006-03-07 10:35:58 51°22.188 3°9.346 -999 2.874649 30.598978 2.08405
2006-03-07 10:36:58 51°22.2 3°9.653 -999 2.877855 30.625577 2.050341
2006-03-07 10:37:58 51°22.215 3°9.957 -999 2.880646 30.627073 2.050341
2006-03-07 10:38:58 51°22.231 3°10.261 -999 2.88106 30.628248 2.08405
2006-03-07 10:39:58 51°22.293 3°10.545 -999 2.883645 30.641101 2.050341
2006-03-07 10:40:58 51°22.376 3°10.823 -999 2.886023 30.634994 2.151469
2006-03-07 10:41:58 51°22.431 3°11.108 -999 2.891193 30.676259 2.185178
2006-03-07 10:42:58 51°22.446 3°11.406 -999 2.891607 30.68845 2.151469
2006-03-07 10:43:58 51°22.454 3°11.706 -999 2.89688 30.752056 2.218888
2006-03-07 10:44:58 51°22.478 3°12.005 -999 2.895226 30.751091 2.387435
2006-03-07 10:45:58 51°22.517 3°12.302 -999 2.890262 30.67822 2.387435
2006-03-07 10:46:58 51°22.553 3°12.598 -999 2.88716 30.641892 2.522272
2006-03-07 10:47:58 51°22.584 3°12.874 -999 2.886643 30.630334 2.522272
2006-03-07 10:48:58 51°22.605 3°13.002 -999 2.889021 30.655426 2.555982
2006-03-07 10:49:58 51°22.619 3°13.085 -999 2.889332 30.65814 2.589691
2006-03-07 10:50:58 51°22.617 3°13.094 -999 2.889642 30.660854 2.6234
2006-03-07 10:51:58 51°22.617 3°13.085 -999 2.890055 30.66019 2.6234
2006-03-07 10:52:58 51°22.618 3°13.071 -999 2.890469 30.658608 2.6234
2006-03-07 10:53:58 51°22.619 3°13.053 -999 2.890676 30.658277 2.589691
2006-03-07 10:54:59 51°22.622 3°13.029 -999 2.891089 30.657613 2.589691
2006-03-07 10:55:58 51°22.624 3°13.002 -999 2.891399 30.656658 2.589691
2006-03-07 10:56:59 51°22.627 3°12.973 -999 2.891503 30.656951 2.555982
2006-03-07 10:57:58 51°22.63 3°12.943 -999 2.891606 30.656327 2.555982
2006-03-07 10:58:59 51°22.632 3°12.911 -999 2.89202 30.656581 2.555982
2006-03-07 10:59:58 51°22.634 3°12.88 -999 2.892227 30.659 2.555982
2006-03-07 11:00:58 51°22.636 3°12.847 -999 2.892227 30.659 2.555982
2006-03-07 11:01:58 51°22.639 3°12.815 -999 2.89264 30.660171 2.555982
2006-03-07 11:02:58 51°22.641 3°12.781 -999 2.893054 30.662258 2.589691
2006-03-07 11:03:58 51°22.642 3°12.746 -999 2.893157 30.663468 2.555982
2006-03-07 11:04:58 51°22.644 3°12.711 -999 2.893261 30.667427 2.555982
2006-03-07 11:05:58 51°22.645 3°12.677 -999 2.893571 30.671055 2.589691
2006-03-07 11:06:58 51°22.647 3°12.642 -999 2.893881 30.675601 2.589691
2006-03-07 11:07:58 51°22.648 3°12.608 -999 2.894191 30.677395 2.555982
2006-03-07 11:08:58 51°22.65 3°12.576 -999 2.894398 30.679814 2.555982
2006-03-07 11:09:58 51°22.649 3°12.551 -999 2.894708 30.679773 2.522272
2006-03-07 11:10:59 51°22.648 3°12.532 -999 2.895018 30.678816 2.488563
2006-03-07 11:11:58 51°22.652 3°12.515 -999 2.894915 30.677607 2.488563
2006-03-07 11:12:58 51°22.656 3°12.494 -999 2.893571 30.673807 2.522272
2006-03-07 11:13:58 51°22.695 3°12.496 -999 2.892847 30.667174 2.522272
2006-03-07 11:14:58 51°22.777 3°12.34 -999 2.889124 30.627297 2.589691
2006-03-07 11:15:58 51°22.875 3°12.03 -999 2.879818 30.521209 2.65711
2006-03-07 11:16:58 51°22.914 3°11.658 -999 2.879715 30.538267 3.027913
2006-03-07 11:17:58 51°22.955 3°11.286 -999 2.887677 30.635103 2.994204
2006-03-07 11:18:58 51°23.008 3°10.927 -999 2.898432 30.779443 2.825657
2006-03-07 11:19:58 51°23.061 3°10.566 -999 2.899259 30.817753 2.522272
2006-03-07 11:20:58 51°23.131 3°10.214 -999 2.899466 30.827573 2.353725
2006-03-07 11:21:58 51°23.211 3°9.864 -999 2.899363 30.828208 2.286306
2006-03-07 11:22:58 51°23.296 3°9.514 -999 2.901431 30.84785 2.286306
2006-03-07 11:23:58 51°23.39 3°9.174 -999 2.902051 30.862534 2.387435
2006-03-07 11:24:58 51°23.487 3°8.835 -999 2.903499 30.886937 2.454853
2006-03-07 11:25:58 51°23.589 3°8.498 -999 2.905567 30.897313 2.387435
2006-03-07 11:26:58 51°23.689 3°8.16 -999 2.908669 30.919815 2.320016
2006-03-07 11:27:58 51°23.792 3°7.827 -999 2.906291 30.863236 2.050341
2006-03-07 11:28:58 51°23.889 3°7.488 -999 2.898225 30.761356 2.050341
2006-03-07 11:29:58 51°23.97 3°7.136 -999 2.895226 30.766762 2.050341
2006-03-07 11:30:58 51°24.048 3°6.78 -999 2.899053 30.837517 2.08405
2006-03-07 11:31:58 51°24.117 3°6.421 -999 2.89533 30.784587 2.08405
2006-03-07 11:32:58 51°24.158 3°6.051 -999 2.898329 30.829945 2.050341
2006-03-07 11:33:58 51°24.209 3°5.685 -999 2.90505 30.912567 2.08405
2006-03-07 11:34:58 51°24.31 3°5.346 -999 2.913013 31.031239 2.117759
2006-03-07 11:35:58 51°24.412 3°5.009 -999 2.915185 31.050245 2.151469
2006-03-07 11:36:58 51°24.516 3°4.679 -999 2.915185 31.046515 2.218888
2006-03-07 11:37:58 51°24.618 3°4.349 -999 2.916116 31.076119 2.320016
2006-03-07 11:38:58 51°24.694 3°4.004 -999 2.914668 31.046963 2.218888
2006-03-07 11:39:59 51°24.713 3°3.629 -999 2.91353 31.010307 2.218888
2006-03-07 11:40:58 51°24.726 3°3.266 -999 2.909497 30.954573 2.151469
2006-03-07 11:41:58 51°24.754 3°2.901 -999 2.905567 30.930706 2.185178
2006-03-07 11:42:59 51°24.779 3°2.53 -999 2.903913 30.904774 2.117759
2006-03-07 11:43:58 51°24.798 3°2.17 -999 2.903396 30.911692 2.151469
2006-03-07 11:44:58 51°24.816 3°1.801 -999 2.902569 30.910326 2.117759
2006-03-07 11:45:58 51°24.832 3°1.431 -999 2.905878 30.944571 2.117759
2006-03-07 11:46:58 51°24.849 3°1.064 -999 2.913013 31.018195 2.151469
2006-03-07 11:47:58 51°24.864 3°0.702 -999 2.919425 31.092626 2.08405
2006-03-07 11:48:58 51°24.88 3°0.337 -999 2.921286 31.133205 2.050341
2006-03-07 11:49:58 51°24.898 2°59.972 -999 2.921907 31.1611 2.050341
2006-03-07 11:50:58 51°24.916 2°59.61 -999 2.921597 31.151829 2.050341
2006-03-07 11:51:58 51°24.931 2°59.248 -999 2.922217 31.148833 1.949212
2006-03-07 11:52:58 51°24.948 2°58.886 -999 2.924802 31.190502 1.949212
2006-03-07 11:53:58 51°24.962 2°58.527 -999 2.926561 31.227157 1.949212
2006-03-07 11:54:58 51°24.976 2°58.17 -999 2.923561 31.176831 2.016631
2006-03-07 11:55:58 51°24.991 2°57.816 -999 2.914771 31.052842 2.050341
2006-03-07 11:56:58 51°25.023 2°57.465 -999 2.915082 31.080765 2.050341
2006-03-07 11:57:58 51°25.053 2°57.112 -999 2.915599 31.096198 2.08405
2006-03-07 11:58:58 51°25.082 2°56.757 -999 2.913531 31.097102 2.050341
2006-03-07 11:59:58 51°25.11 2°56.402 -999 2.914151 31.113777 2.016631
2006-03-07 12:00:58 51°25.14 2°56.044 -999 2.916737 31.147059 2.08405
2006-03-07 12:01:58 51°25.169 2°55.687 -999 2.918598 31.17839 2.08405
2006-03-07 12:02:58 51°25.196 2°55.33 -999 2.920873 31.198641 2.08405
2006-03-07 12:03:58 51°25.229 2°54.976 -999 2.920149 31.191045 2.117759
2006-03-07 12:04:59 51°25.259 2°54.616 -999 2.921287 31.185674 2.117759
2006-03-07 12:05:58 51°25.29 2°54.269 -999 2.919322 31.161583 2.151469
2006-03-07 12:06:58 51°25.322 2°53.918 -999 2.92139 31.18877 2.117759
2006-03-07 12:07:58 51°25.356 2°53.569 -999 2.920977 31.193284 2.050341
2006-03-07 12:08:58 51°25.394 2°53.218 -999 2.925216 31.229167 2.050341
2006-03-07 12:09:58 51°25.434 2°52.864 -999 2.935248 31.333274 1.982922
2006-03-07 12:10:58 51°25.482 2°52.513 -999 2.945072 31.435856 1.949212
2006-03-07 12:11:59 51°25.531 2°52.154 -999 2.953966 31.53502 1.915503
2006-03-07 12:12:58 51°25.581 2°51.812 -999 2.959241 31.596262 1.881794
2006-03-07 12:13:58 51°25.627 2°51.465 -999 2.965032 31.647444 1.848084
2006-03-07 12:14:58 51°25.678 2°51.114 -999 2.968549 31.69176 1.881794
2006-03-07 12:15:58 51°25.722 2°50.762 -999 2.972168 31.7192 1.848084
2006-03-07 12:16:59 51°25.761 2°50.401 -999 2.97765 31.775241 1.848084
2006-03-07 12:17:58 51°25.803 2°50.052 -999 2.983442 31.847354 1.881794
2006-03-07 12:18:58 51°25.848 2°49.699 -999 2.993164 31.942856 1.881794
2006-03-07 12:19:58 51°25.897 2°49.349 -999 2.98944 31.85689 1.881794
2006-03-07 12:20:58 51°25.946 2°49.001 -999 2.987164 31.812941 1.848084
2006-03-07 12:21:58 51°25.971 2°48.775 -999 2.992232 31.875445 1.881794
2006-03-07 12:22:58 51°25.968 2°48.632 -999 2.995749 31.942674 1.848084
2006-03-07 12:23:59 51°25.962 2°48.578 -999 2.998749 31.982811 1.848084
2006-03-07 12:24:59 51°25.962 2°48.562 -999 3.001128 32.01661 1.881794
2006-03-07 12:25:59 51°25.96 2°48.543 -999 2.999576 32.002159 1.915503
2006-03-07 12:26:58 51°25.961 2°48.522 -999 3.000507 32.014094 1.915503
2006-03-07 12:27:59 51°25.96 2°48.5 -999 3.001748 32.023926 1.881794
2006-03-07 12:28:58 51°25.96 2°48.476 -999 3.003093 32.035936 1.881794
2006-03-07 12:29:58 51°25.96 2°48.451 -999 3.003713 32.04133 1.881794
2006-03-07 12:30:58 51°25.961 2°48.427 -999 3.004127 32.043325 1.881794
2006-03-07 12:31:58 51°25.948 2°48.362 -999 3.003093 32.031133 1.881794
2006-03-07 12:32:59 51°25.836 2°48.174 -999 3.003506 32.030248 1.881794
2006-03-07 12:33:58 51°25.674 2°47.937 -999 3.003403 32.040555 1.915503
2006-03-07 12:34:58 51°25.496 2°47.705 -999 3.000197 32.011396 1.949212
2006-03-07 12:35:58 51°25.319 2°47.473 -999 2.999369 31.996841 1.949212
2006-03-07 12:36:59 51°25.14 2°47.235 -999 2.996163 31.977269 1.982922
2006-03-07 12:37:58 51°24.967 2°47.006 -999 2.992646 31.933883 1.982922
2006-03-07 12:38:59 51°24.788 2°46.767 -999 2.986234 31.888908 2.016631
2006-03-07 12:39:59 51°24.612 2°46.531 -999 2.98851 31.927264 2.016631
2006-03-07 12:40:58 51°24.438 2°46.3 -999 2.991613 31.957171 2.016631
2006-03-07 12:41:59 51°24.273 2°46.037 -999 2.997404 31.995747 2.016631
2006-03-07 12:42:58 51°24.114 2°45.778 -999 2.997197 31.994268 1.982922
2006-03-07 12:43:59 51°23.949 2°45.51 -999 3.000093 32.028431 1.982922
2006-03-07 12:44:58 51°23.794 2°45.243 -999 3.002576 32.044253 1.982922
2006-03-07 12:45:59 51°23.635 2°44.967 -999 2.996267 31.978488 1.982922
2006-03-07 12:46:58 51°23.48 2°44.702 -999 2.998335 31.991365 1.982922
2006-03-07 12:47:58 51°23.327 2°44.426 -999 2.994612 31.958014 2.016631
2006-03-07 12:48:59 51°23.175 2°44.142 -999 2.990681 31.91646 2.016631
2006-03-07 12:49:59 51°23.034 2°43.848 -999 2.990785 31.925345 2.016631
2006-03-07 12:50:59 51°22.893 2°43.554 -999 2.992957 31.960559 2.016631
2006-03-07 12:51:58 51°22.754 2°43.263 -999 2.993371 31.965441 2.016631
2006-03-07 12:52:59 51°22.611 2°42.96 -999 2.99637 31.988348 2.050341
2006-03-07 12:53:58 51°22.456 2°42.694 -999 2.997818 31.991026 2.016631
2006-03-07 12:54:58 51°22.274 2°42.471 -999 3.001955 32.019643 2.016631
2006-03-07 12:55:58 51°22.084 2°42.271 -999 2.995542 31.964195 2.016631
2006-03-07 12:56:59 51°21.889 2°42.068 -999 2.991199 31.94557 2.050341
2006-03-07 12:57:58 51°21.699 2°41.88 -999 2.987786 31.927353 2.08405
2006-03-07 12:58:58 51°21.504 2°41.688 -999 2.987062 31.914968 2.08405
2006-03-07 12:59:58 51°21.312 2°41.494 -999 2.985821 31.907989 2.117759
2006-03-07 13:00:58 51°21.12 2°41.302 -999 2.98851 31.903298 2.08405
2006-03-07 13:01:59 51°20.926 2°41.107 -999 2.984683 31.850514 2.08405
2006-03-07 13:02:58 51°20.738 2°40.917 -999 2.981063 31.831727 2.117759
2006-03-07 13:03:58 51°20.547 2°40.721 -999 2.978374 31.819125 2.117759
2006-03-07 13:04:58 51°20.357 2°40.53 -999 2.976616 31.806024 2.151469
2006-03-07 13:05:59 51°20.166 2°40.335 -999 2.969376 31.704375 2.151469
2006-03-07 13:06:59 51°19.977 2°40.148 -999 2.960688 31.605736 2.151469
2006-03-07 13:07:59 51°19.779 2°39.984 -999 2.955828 31.56361 2.151469
2006-03-07 13:08:59 51°19.577 2°39.834 -999 2.952001 31.537454 2.185178
2006-03-07 13:09:58 51°19.379 2°39.683 -999 2.952622 31.558069 2.252597
2006-03-07 13:10:58 51°19.186 2°39.496 -999 2.951588 31.563915 2.286306
2006-03-07 13:11:59 51°18.992 2°39.298 -999 2.950657 31.564332 2.286306
2006-03-07 13:12:59 51°18.802 2°39.101 -999 2.953036 31.593385 2.252597
2006-03-07 13:13:59 51°18.61 2°38.908 -999 2.955828 31.624474 2.252597
2006-03-07 13:14:59 51°18.42 2°38.714 -999 2.956035 31.631684 2.252597
2006-03-07 13:15:58 51°18.233 2°38.524 -999 2.953553 31.6014 2.286306
2006-03-07 13:16:59 51°18.042 2°38.323 -999 2.949727 31.562847 2.320016
2006-03-07 13:17:58 51°17.856 2°38.129 -999 2.940419 31.45763 2.353725
2006-03-07 13:18:58 51°17.668 2°37.926 -999 2.938661 31.445394 2.353725
2006-03-07 13:19:59 51°17.479 2°37.717 -999 2.93711 31.44034 2.353725
2006-03-07 13:20:58 51°17.295 2°37.517 -999 2.935145 31.427547 2.387435
2006-03-07 13:21:59 51°17.104 2°37.309 -999 2.93318 31.406214 2.387435
2006-03-07 13:22:59 51°16.916 2°37.106 -999 2.937834 31.446999 2.421144
2006-03-07 13:23:58 51°16.761 2°36.937 -999 2.944763 31.527003 2.488563
2006-03-07 13:24:58 51°16.681 2°36.847 -999 2.950451 31.601884 2.488563
2006-03-07 13:25:58 51°16.651 2°36.797 -999 2.953036 31.631514 2.488563
2006-03-07 13:26:58 51°16.66 2°36.781 -999 2.954484 31.648642 2.488563
2006-03-07 13:27:58 51°16.663 2°36.764 -999 2.955208 31.655296 2.488563
2006-03-07 13:28:58 51°16.665 2°36.743 -999 2.955415 31.657743 2.488563
2006-03-07 13:29:59 51°16.666 2°36.719 -999 2.955518 31.658012 2.488563
2006-03-07 13:30:58 51°16.668 2°36.693 -999 2.955105 31.656938 2.454853
2006-03-07 13:31:59 51°16.67 2°36.666 -999 2.955518 31.657057 2.454853
2006-03-07 13:32:58 51°16.671 2°36.636 -999 2.956242 31.660845 2.454853
2006-03-07 13:33:59 51°16.667 2°36.576 -999 2.956139 31.658667 2.421144
2006-03-07 13:34:58 51°16.581 2°36.492 -999 2.955622 31.65446 2.454853
2006-03-07 13:35:59 51°16.414 2°36.597 -999 2.956449 31.657562 2.488563
2006-03-07 13:36:59 51°16.243 2°36.779 -999 2.957173 31.667079 2.589691
2006-03-07 13:37:58 51°16.07 2°36.963 -999 2.95707 31.667766 2.6234
2006-03-07 13:38:59 51°15.885 2°37.135 -999 2.956863 31.663409 2.555982
2006-03-07 13:39:58 51°15.703 2°37.294 -999 2.955415 31.640561 2.589691
2006-03-07 13:40:59 51°15.516 2°37.459 -999 2.948486 31.561501 2.589691
2006-03-07 13:41:58 51°15.337 2°37.618 -999 2.943315 31.516542 2.6234
2006-03-07 13:42:59 51°15.15 2°37.779 -999 2.940316 31.497239 2.6234
2006-03-07 13:43:59 51°14.964 2°37.941 -999 2.939282 31.495465 2.6234
2006-03-07 13:44:59 51°14.775 2°38.102 -999 2.938661 31.474817 2.6234
2006-03-07 13:45:59 51°14.583 2°38.257 -999 2.936903 31.45023 2.690819
2006-03-07 13:46:58 51°14.396 2°38.411 -999 2.936076 31.442346 2.690819
2006-03-07 13:47:59 51°14.202 2°38.574 -999 2.937213 31.453898 2.758238
2006-03-07 13:48:58 51°14.009 2°38.706 -999 2.938558 31.464097 2.926785
2006-03-07 13:49:59 51°13.788 2°38.695 -999 2.93649 31.464331 2.960494
2006-03-07 13:50:58 51°13.591 2°38.54 -999 2.935352 31.455623 2.893076
2006-03-07 13:51:58 51°13.383 2°38.413 -999 2.934111 31.44854 2.926785
2006-03-07 13:52:59 51°13.17 2°38.29 -999 2.93256 31.441583 2.893076
2006-03-07 13:53:58 51°12.963 2°38.177 -999 2.931112 31.421596 2.859366
2006-03-07 13:54:59 51°12.749 2°38.06 -999 2.929664 31.402563 2.893076
2006-03-07 13:55:59 51°12.542 2°37.943 -999 2.92801 31.395317 2.893076
2006-03-07 13:56:59 51°12.33 2°37.82 -999 2.92832 31.405636 2.926785
2006-03-07 13:57:58 51°12.123 2°37.707 -999 2.93287 31.438604 3.095332
2006-03-07 13:58:58 51°11.912 2°37.591 -999 2.931319 31.437345 3.129042
2006-03-07 13:59:58 51°11.7 2°37.479 -999 2.930802 31.435025 2.994204
2006-03-07 14:00:59 51°11.485 2°37.363 -999 2.934422 31.462668 2.791947
2006-03-07 14:01:59 51°11.277 2°37.242 -999 2.939903 31.523751 2.589691
2006-03-07 14:02:58 51°11.073 2°37.114 -999 2.948279 31.597171 2.555982
2006-03-07 14:03:59 51°10.863 2°36.985 -999 2.963895 31.732242 2.522272
2006-03-07 14:04:58 51°10.662 2°36.861 -999 2.971652 31.795233 2.555982
2006-03-07 14:05:58 51°10.458 2°36.783 -999 2.978995 31.842722 2.589691
2006-03-07 14:06:58 51°10.339 2°37 -999 2.981167 31.853043 2.65711
2006-03-07 14:07:58 51°10.405 2°37.305 -999 2.980959 31.827639 2.690819
2006-03-07 14:08:59 51°10.443 2°37.631 -999 2.953346 31.559014 2.555982
2006-03-07 14:09:58 51°10.467 2°37.947 -999 2.947865 31.513306 2.555982
2006-03-07 14:10:59 51°10.484 2°38.277 -999 2.941763 31.457391 2.589691
2006-03-07 14:11:59 51°10.505 2°38.6 -999 2.935972 31.409839 2.589691
2006-03-07 14:12:59 51°10.547 2°38.918 -999 2.933387 31.388766 2.589691
2006-03-07 14:13:58 51°10.588 2°39.233 -999 2.927906 31.338199 2.6234
2006-03-07 14:14:59 51°10.632 2°39.558 -999 2.928837 31.349197 2.6234
2006-03-07 14:15:59 51°10.678 2°39.877 -999 2.929043 31.347858 2.6234
2006-03-07 14:16:59 51°10.738 2°40.19 -999 2.922115 31.282049 2.65711
2006-03-07 14:17:59 51°10.793 2°40.505 -999 2.915393 31.221476 2.65711
2006-03-07 14:18:58 51°10.849 2°40.815 -999 2.910636 31.176553 2.690819
2006-03-07 14:19:35 51°13.193 2°56.884 -999 4.216806 30.052907 0.061486
2006-03-07 14:20:28 51°10.935 2°41.289 -999 2.903398 31.101327 2.724529
2006-03-07 14:21:29 51°10.993 2°41.61 -999 2.899572 31.057977 2.758238
2006-03-07 14:22:29 51°11.014 2°41.812 -999 2.897504 31.034469 2.758238
2006-03-07 14:23:28 51°11.032 2°41.889 -999 2.896056 31.021109 2.724529
2006-03-07 14:24:29 51°11.043 2°41.91 -999 2.895642 31.009658 2.724529
2006-03-07 14:25:28 51°11.052 2°41.923 -999 2.895952 31.008637 2.724529
2006-03-07 14:26:28 51°11.059 2°41.931 -999 2.895849 31.005541 2.724529
2006-03-07 14:27:28 51°11.066 2°41.936 -999 2.895745 31.002446 2.724529
2006-03-07 14:28:28 51°11.072 2°41.937 -999 2.896056 31.004237 2.724529
2006-03-07 14:29:28 51°11.079 2°41.938 -999 2.896159 31.007333 2.724529
2006-03-07 14:30:29 51°11.088 2°41.937 -999 2.896469 31.009124 2.724529
2006-03-07 14:31:29 51°11.097 2°41.936 -999 2.896573 31.009408 2.724529
2006-03-07 14:32:29 51°11.106 2°41.936 -999 2.896676 31.009693 2.724529
2006-03-07 14:33:28 51°11.115 2°41.937 -999 2.896779 31.008104 2.724529
2006-03-07 14:34:29 51°11.125 2°41.936 -999 2.896986 31.00961 2.724529
2006-03-07 14:35:28 51°11.136 2°41.999 -999 2.89678 31.009978 2.724529
2006-03-07 14:36:29 51°11.162 2°42.244 -999 2.897503 31.017592 2.758238
2006-03-07 14:37:29 51°11.199 2°42.558 -999 2.893677 30.968655 2.758238
2006-03-07 14:38:28 51°11.242 2°42.881 -999 2.890575 30.943239 2.791947
2006-03-07 14:39:28 51°11.292 2°43.207 -999 2.8883 30.916369 2.791947
2006-03-07 14:40:28 51°11.35 2°43.531 -999 2.884681 30.87736 2.825657
2006-03-07 14:41:28 51°11.407 2°43.853 -999 2.88313 30.859976 2.859366
2006-03-07 14:42:28 51°11.459 2°44.178 -999 2.879924 30.823986 2.893076
2006-03-07 14:43:29 51°11.516 2°44.505 -999 2.874858 30.761375 2.926785
2006-03-07 14:44:28 51°11.577 2°44.818 -999 2.873307 30.745854 2.960494
2006-03-07 14:45:29 51°11.643 2°45.142 -999 2.869998 30.707726 2.994204
2006-03-07 14:46:29 51°11.717 2°45.457 -999 2.867723 30.689227 3.027913
2006-03-07 14:47:28 51°11.788 2°45.768 -999 2.866379 30.673359 3.061623
2006-03-07 14:48:29 51°11.862 2°46.09 -999 2.866689 30.671457 3.095332
2006-03-07 14:49:28 51°11.933 2°46.402 -999 2.864207 30.632911 3.061623
2006-03-07 14:50:29 51°12.007 2°46.724 -999 2.862036 30.605447 3.095332
2006-03-07 14:51:28 51°12.081 2°47.034 -999 2.859554 30.580798 3.162751
2006-03-07 14:52:28 51°12.166 2°47.343 -999 2.857073 30.546913 3.162751
2006-03-07 14:53:29 51°12.251 2°47.66 -999 2.85335 30.50118 3.23017
2006-03-07 14:54:28 51°12.337 2°47.963 -999 2.850042 30.466779 3.23017
2006-03-07 14:55:28 51°12.425 2°48.269 -999 2.848491 30.443896 3.23017
2006-03-07 14:56:28 51°12.518 2°48.572 -999 2.847043 30.420401 3.263879
2006-03-07 14:57:28 51°12.611 2°48.877 -999 2.847767 30.435365 3.297589
2006-03-07 14:58:29 51°12.705 2°49.186 -999 2.847767 30.439964 3.297589
2006-03-07 14:59:29 51°12.797 2°49.492 -999 2.848904 30.456132 3.297589
2006-03-07 15:00:29 51°12.89 2°49.798 -999 2.848284 30.445138 3.331298
2006-03-07 15:01:28 51°12.981 2°50.098 -999 2.847353 30.43141 3.398717
2006-03-07 15:02:28 51°13.075 2°50.403 -999 2.846009 30.412812 3.398717
2006-03-07 15:03:29 51°13.169 2°50.714 -999 2.845906 30.409756 3.398717
2006-03-07 15:04:28 51°13.261 2°51.016 -999 2.846423 30.413092 3.398717
2006-03-07 15:05:28 51°13.353 2°51.323 -999 2.846216 30.405144 3.331298
2006-03-07 15:06:28 51°13.446 2°51.63 -999 2.84787 30.412694 3.263879
2006-03-07 15:07:28 51°13.543 2°51.936 -999 2.849111 30.429143 3.23017
2006-03-07 15:08:29 51°13.64 2°52.249 -999 2.849111 30.422714 3.19646
2006-03-07 15:09:28 51°13.737 2°52.549 -999 2.84849 30.408984 3.23017
2006-03-07 15:10:28 51°13.838 2°52.855 -999 2.847973 30.397394 3.263879
2006-03-07 15:11:28 51°13.937 2°53.156 -999 2.847146 30.384908 3.263879
2006-03-07 15:12:28 51°14.018 2°53.413 -999 0.061999 0.51215 4.241452
2006-03-07 15:13:28 51°14.071 2°53.572 -999 0.675031 4.776861 5.724665
2006-03-07 15:14:28 51°14.108 2°53.685 -999 0.57516 4.044117 4.679674
2006-03-07 15:15:28 51°14.136 2°53.767 -999 0.533465 3.736176 4.443708
2006-03-07 15:16:28 51°14.166 2°53.822 -999 0.517303 3.625764 4.275161
2006-03-07 15:17:28 51°14.219 2°53.87 -999 0.508656 3.574034 4.713383
2006-03-07 15:18:29 51°14.298 2°54.058 -999 0.503097 3.543202 6.129178
2006-03-07 15:19:28 51°14.36 2°54.332 -999 0.498979 3.512898 5.893212
2006-03-07 15:20:28 51°14.39 2°54.645 -999 0.495479 3.490858 5.724665
2006-03-07 15:21:28 51°14.369 2°54.957 -999 0.492494 3.475108 5.623537
2006-03-07 15:22:29 51°14.278 2°55.229 -999 0.490024 3.46035 5.589828
2006-03-07 15:23:29 51°14.145 2°55.403 -999 0.488068 3.44807 5.623537
2006-03-07 15:24:28 51°14.034 2°55.481 -999 0.486318 3.436261 5.657247
2006-03-07 15:25:29 51°13.946 2°55.547 -999 0.484877 3.427991 5.690956
2006-03-07 15:26:29 51°13.863 2°55.608 -999 0.483744 3.420899 5.724665
2006-03-07 15:27:29 51°13.775 2°55.684 -999 0.482715 3.414505 5.758375
2006-03-07 15:28:29 51°13.709 2°55.785 -999 0.481891 3.408749 5.825794
2006-03-07 15:29:29 51°13.67 2°55.877 -999 0.481274 3.405303 5.893212
2006-03-07 15:30:29 51°13.64 2°55.953 -999 0.480656 3.405567 5.926922
2006-03-07 15:31:28 51°13.618 2°56.016 -999 0.480244 3.402003 5.960631
2006-03-07 15:32:28 51°13.609 2°56.066 -999 0.479833 3.399196 5.994341
2006-03-07 15:33:29 51°13.604 2°56.08 -999 0.479524 3.397924 6.061759
2006-03-07 15:34:28 51°13.599 2°56.09 -999 0.479112 3.397918 6.095469